Time;durP1;ratioP1;P1;durP2;ratioP2;P2;SDS_P1;SDS_P2;PMS_P1;PMS_P2;Temp;Humidity;BMP_temperature;BMP_pressure;BME280_temperature;BME280_humidity;BME280_pressure;Samples;Min_cycle;Max_cycle;Signal;HPM_P1;HPM_P2
2024/03/20 00:04:38;;;;;;;5.82;4.00;;;7.70;67.50;;;;;;5116373;28;20160;-65
2024/03/20 00:07:18;;;;;;;4.95;3.35;;;7.60;67.70;;;;;;5117039;28;20603;-65
2024/03/20 00:09:45;;;;;;;4.80;3.60;;;7.70;67.90;;;;;;5076239;28;20261;-65
2024/03/20 00:12:13;;;;;;;6.38;3.60;;;7.60;67.10;;;;;;5075352;28;20698;-65
2024/03/20 00:18:02;;;;;;;6.40;4.22;;;7.60;67.00;;;;;;5075164;28;20580;-65
2024/03/20 00:20:29;;;;;;;5.80;3.80;;;7.60;67.10;;;;;;5076354;28;20204;-65
2024/03/20 00:22:56;;;;;;;6.38;4.07;;;7.60;67.10;;;;;;5089432;28;20244;-65
2024/03/20 00:28:46;;;;;;;5.85;4.18;;;7.60;67.60;;;;;;5116223;28;20152;-65
2024/03/20 00:31:13;;;;;;;5.60;3.45;;;7.60;67.00;;;;;;5115453;28;20263;-65
2024/03/20 00:33:40;;;;;;;6.15;3.55;;;7.60;66.20;;;;;;5115647;28;20357;-65
2024/03/20 00:36:07;;;;;;;5.38;3.30;;;7.50;66.00;;;;;;5115329;28;20263;-65
2024/03/20 00:38:34;;;;;;;4.97;3.92;;;7.50;65.40;;;;;;5115723;28;20567;-65
2024/03/20 00:44:24;;;;;;;4.38;2.85;;;7.40;68.10;;;;;;5115600;28;20202;-65
2024/03/20 00:54:00;;;;;;;4.20;3.03;;;7.40;67.70;;;;;;5115474;28;20193;-65
2024/03/20 00:56:27;;;;;;;8.25;3.70;;;7.30;66.80;;;;;;5115098;28;20212;-65
2024/03/20 00:58:54;;;;;;;5.68;3.03;;;7.30;67.10;;;;;;5116081;28;20208;-65
2024/03/20 01:05:02;;;;;;;8.00;4.00;;;7.20;67.90;;;;;;5115168;28;20167;-65
2024/03/20 01:10:51;;;;;;;4.38;3.40;;;7.20;68.20;;;;;;5114247;28;20210;-65
2024/03/20 01:16:40;;;;;;;5.20;3.70;;;7.10;65.80;;;;;;5115087;28;20232;-65
2024/03/20 01:22:35;;;;;;;5.07;3.10;;;7.00;66.40;;;;;;5114843;28;20152;-65
2024/03/20 01:28:27;;;;;;;4.82;3.17;;;7.00;66.90;;;;;;5114416;28;20179;-65
2024/03/20 01:30:54;;;;;;;6.20;3.95;;;6.90;67.10;;;;;;5114600;28;20173;-65
2024/03/20 01:33:21;;;;;;;4.78;3.50;;;6.90;67.10;;;;;;5115326;28;20232;-65
2024/03/20 01:35:48;;;;;;;5.60;3.55;;;6.80;67.10;;;;;;5114724;28;20204;-65
2024/03/20 01:41:38;;;;;;;6.28;3.45;;;6.80;66.70;;;;;;5114999;28;20511;-65
2024/03/20 01:47:26;;;;;;;5.60;3.28;;;6.60;66.90;;;;;;5113984;28;20191;-65
2024/03/20 01:57:17;;;;;;;5.32;2.78;;;6.50;67.50;;;;;;5113981;28;20237;-65
2024/03/20 01:59:44;;;;;;;4.72;3.40;;;6.50;66.60;;;;;;5113585;28;20214;-65
2024/03/20 02:02:43;;;;;;;4.70;2.85;;;6.40;66.80;;;;;;5114457;28;20256;-65
2024/03/20 02:08:32;;;;;;;6.00;2.97;;;6.50;67.80;;;;;;5114028;28;20167;-65
2024/03/20 02:10:59;;;;;;;4.70;3.08;;;6.40;67.80;;;;;;5114401;28;20617;-65
2024/03/20 02:13:27;;;;;;;5.60;3.30;;;6.40;68.20;;;;;;5113709;28;20204;-65
2024/03/20 02:19:16;;;;;;;6.22;3.60;;;6.40;68.40;;;;;;5114234;28;20511;-65
2024/03/20 02:21:44;;;;;;;4.43;2.50;;;6.20;68.90;;;;;;5113270;28;20273;-65
2024/03/20 02:24:39;;;;;;;4.18;3.10;;;6.20;69.40;;;;;;5114910;28;20494;-65
2024/03/20 02:30:29;;;;;;;5.13;3.45;;;6.20;69.10;;;;;;5113008;28;20629;-65
2024/03/20 02:36:17;;;;;;;5.95;3.90;;;6.20;68.70;;;;;;5114105;28;20147;-65
2024/03/20 02:42:08;;;;;;;7.70;3.90;;;6.10;68.90;;;;;;5116960;28;20247;-64
2024/03/20 02:44:35;;;;;;;4.45;3.05;;;6.10;70.50;;;;;;5117911;28;20212;-65
2024/03/20 02:50:24;;;;;;;4.68;2.63;;;6.20;69.80;;;;;;5117547;28;20163;-65
2024/03/20 02:52:50;;;;;;;5.03;2.83;;;6.10;68.50;;;;;;5117251;28;20298;-65
2024/03/20 02:55:25;;;;;;;4.45;3.22;;;6.10;67.90;;;;;;5118137;28;20584;-65
2024/03/20 02:57:54;;;;;;;4.50;2.92;;;6.00;67.00;;;;;;5117596;28;20226;-64
2024/03/20 03:03:42;;;;;;;3.60;2.83;;;5.90;66.80;;;;;;5116201;28;20207;-65
2024/03/20 03:09:31;;;;;;;4.50;3.03;;;5.90;67.70;;;;;;5117530;28;20156;-64
2024/03/20 03:15:22;;;;;;;4.47;3.45;;;5.80;68.30;;;;;;5117032;28;20175;-65
2024/03/20 03:18:10;;;;;;;5.18;3.13;;;5.80;68.00;;;;;;5117193;28;20259;-64
2024/03/20 03:23:59;;;;;;;6.90;2.65;;;5.80;67.70;;;;;;5117380;28;20184;-64
2024/03/20 03:29:48;;;;;;;4.63;3.47;;;5.70;67.40;;;;;;5117431;28;20148;-64
2024/03/20 03:35:38;;;;;;;4.85;3.33;;;5.70;68.70;;;;;;5116524;28;20175;-64
2024/03/20 03:38:23;;;;;;;6.13;2.88;;;5.70;69.20;;;;;;5117530;28;20176;-64
2024/03/20 03:44:12;;;;;;;6.60;2.45;;;5.70;69.70;;;;;;5117043;28;20230;-64
2024/03/20 03:50:03;;;;;;;4.50;2.30;;;5.70;68.60;;;;;;5116101;28;20148;-65
2024/03/20 03:55:53;;;;;;;4.10;2.83;;;5.60;68.10;;;;;;5116626;28;20186;-64
2024/03/20 03:58:20;;;;;;;3.38;2.30;;;5.60;67.70;;;;;;5116653;28;20283;-64
2024/03/20 04:01:43;;;;;;;5.38;2.58;;;5.60;66.80;;;;;;5116651;28;20259;-64
2024/03/20 04:07:46;;;;;;;4.15;2.35;;;5.60;66.30;;;;;;5116744;28;20642;-64
2024/03/20 04:14:20;;;;;;;4.15;2.40;;;5.50;66.60;;;;;;5116171;28;20272;-64
2024/03/20 04:16:48;;;;;;;4.55;2.60;;;5.40;67.30;;;;;;5114048;28;20172;-64
2024/03/20 04:19:37;;;;;;;4.43;2.90;;;5.30;67.50;;;;;;5115976;28;20208;-64
2024/03/20 04:25:28;;;;;;;3.83;2.00;;;5.30;67.20;;;;;;5116317;28;20167;-64
2024/03/20 04:27:56;;;;;;;3.70;2.78;;;5.20;67.30;;;;;;5115776;28;20700;-66
2024/03/20 04:31:07;;;;;;;4.45;2.75;;;5.20;67.40;;;;;;5116550;28;20245;-64
2024/03/20 04:34:18;;;;;;;5.40;3.10;;;5.20;67.80;;;;;;5116794;28;20264;-65
2024/03/20 04:36:46;;;;;;;6.38;4.10;;;5.20;67.60;;;;;;5112816;28;20169;-65
2024/03/20 04:39:13;;;;;;;6.32;4.60;;;5.20;67.90;;;;;;5114366;28;20192;-65
2024/03/20 04:45:04;;;;;;;6.82;4.38;;;5.10;69.60;;;;;;5115681;28;20564;-65
2024/03/20 04:50:53;;;;;;;4.88;3.50;;;5.20;70.20;;;;;;5115235;28;20664;-64
2024/03/20 04:57:01;;;;;;;4.10;2.70;;;5.30;71.00;;;;;;5112949;28;20207;-65
2024/03/20 04:59:28;;;;;;;4.97;3.20;;;5.30;70.40;;;;;;5114776;28;20267;-65
2024/03/20 05:01:55;;;;;;;4.38;2.47;;;5.30;70.10;;;;;;5115632;28;20603;-64
2024/03/20 05:07:50;;;;;;;5.32;2.35;;;5.30;67.60;;;;;;5115506;28;20147;-65
2024/03/20 05:13:40;;;;;;;5.72;2.30;;;5.10;67.50;;;;;;5115381;28;20232;-66
2024/03/20 05:19:29;;;;;;;4.95;3.10;;;5.10;70.20;;;;;;5114783;28;20198;-66
2024/03/20 05:25:18;;;;;;;4.93;3.30;;;5.10;68.00;;;;;;5114411;28;20244;-66
2024/03/20 05:31:08;;;;;;;6.55;3.53;;;5.00;68.80;;;;;;5114344;28;20191;-65
2024/03/20 05:33:35;;;;;;;5.10;2.10;;;5.00;69.00;;;;;;5115205;28;20271;-64
2024/03/20 05:36:03;;;;;;;3.67;2.30;;;5.00;68.80;;;;;;5114225;28;20682;-64
2024/03/20 05:41:52;;;;;;;4.75;2.83;;;4.90;71.10;;;;;;5114636;28;20198;-65
2024/03/20 05:47:43;;;;;;;6.43;2.28;;;4.90;70.60;;;;;;5114094;28;20571;-65
2024/03/20 05:50:56;;;;;;;60.17;22.75;;;5.00;71.10;;;;;;5114879;28;20228;-66
2024/03/20 06:00:25;;;;;;;20.23;8.82;;;5.10;72.40;;;;;;5117807;28;20155;-66
2024/03/20 06:06:14;;;;;;;9.02;3.38;;;5.10;73.90;;;;;;5073243;28;20158;-65
2024/03/20 06:08:42;;;;;;;21.85;6.25;;;5.20;74.80;;;;;;5103649;28;20640;-65
2024/03/20 06:11:18;;;;;;;14.98;6.18;;;5.40;75.20;;;;;;5114290;28;20263;-65
2024/03/20 06:13:46;;;;;;;10.00;5.60;;;5.50;75.00;;;;;;5111858;28;20653;-65
2024/03/20 06:16:12;;;;;;;6.25;3.78;;;5.60;74.80;;;;;;5113859;28;20276;-65
2024/03/20 06:18:39;;;;;;;6.00;3.30;;;5.70;74.90;;;;;;5112904;28;20269;-65
2024/03/20 06:21:06;;;;;;;6.55;3.10;;;5.80;74.80;;;;;;5113141;28;20477;-65
2024/03/20 06:23:34;;;;;;;6.00;2.65;;;5.90;75.20;;;;;;5113117;28;20232;-65
2024/03/20 06:26:00;;;;;;;3.35;2.30;;;6.00;75.00;;;;;;5114214;28;20255;-65
2024/03/20 06:28:27;;;;;;;9.20;2.60;;;6.10;74.80;;;;;;5113450;28;20568;-65
2024/03/20 06:30:53;;;;;;;3.95;2.55;;;6.20;74.30;;;;;;5112545;28;20465;-65
2024/03/20 06:33:21;;;;;;;5.32;2.70;;;6.30;74.70;;;;;;5113339;28;20195;-65
2024/03/20 06:35:59;;;;;;;4.35;2.33;;;6.40;74.20;;;;;;5113770;28;20172;-65
2024/03/20 06:38:26;;;;;;;4.45;2.85;;;6.60;74.40;;;;;;5112857;28;20188;-65
2024/03/20 06:40:53;;;;;;;3.60;2.13;;;6.80;73.90;;;;;;5113781;28;20185;-65
2024/03/20 06:43:21;;;;;;;6.32;3.35;;;6.90;73.10;;;;;;5112053;28;20208;-65
2024/03/20 06:45:49;;;;;;;5.45;3.35;;;6.90;73.30;;;;;;5112862;28;20184;-65
2024/03/20 06:48:17;;;;;;;5.05;2.70;;;7.00;74.20;;;;;;5092479;28;20683;-66
2024/03/20 06:50:46;;;;;;;3.88;2.60;;;7.20;74.30;;;;;;5102616;28;20181;-65
2024/03/20 06:53:13;;;;;;;4.90;3.55;;;7.40;73.30;;;;;;5112936;28;20188;-65
2024/03/20 06:55:40;;;;;;;3.97;2.75;;;7.60;73.10;;;;;;5111573;28;20249;-65
2024/03/20 06:58:08;;;;;;;4.28;2.83;;;7.80;72.60;;;;;;5102130;28;20177;-65
2024/03/20 07:00:34;;;;;;;3.10;2.20;;;8.00;72.10;;;;;;5092229;28;20632;-65
2024/03/20 07:03:02;;;;;;;4.60;2.75;;;8.30;71.80;;;;;;5091663;28;20181;-65
2024/03/20 07:05:28;;;;;;;4.63;2.90;;;8.50;69.80;;;;;;5092150;28;20200;-65
2024/03/20 07:07:54;;;;;;;4.60;2.93;;;8.80;68.70;;;;;;5092246;28;20189;-65
2024/03/20 07:10:20;;;;;;;5.05;2.60;;;9.10;68.50;;;;;;5100772;28;20483;-66
2024/03/20 07:12:47;;;;;;;4.37;2.97;;;9.40;67.10;;;;;;5112125;28;20181;-65
2024/03/20 07:15:15;;;;;;;9.15;2.83;;;9.70;66.20;;;;;;5110200;28;20434;-66
2024/03/20 07:17:42;;;;;;;4.57;2.92;;;10.10;64.80;;;;;;5097232;28;20188;-65
2024/03/20 07:20:09;;;;;;;4.43;2.50;;;10.60;64.90;;;;;;5111466;28;20487;-65
2024/03/20 07:22:36;;;;;;;5.15;2.67;;;11.10;63.50;;;;;;5111723;28;20204;-65
2024/03/20 07:25:02;;;;;;;6.85;3.40;;;11.60;62.30;;;;;;5100560;28;20248;-66
2024/03/20 07:27:29;;;;;;;4.60;3.45;;;12.10;63.40;;;;;;5095023;28;20527;-66
2024/03/20 07:29:55;;;;;;;7.13;2.90;;;12.80;61.30;;;;;;5110889;28;20275;-65
2024/03/20 07:32:24;;;;;;;4.63;2.40;;;13.60;61.20;;;;;;5116305;28;20528;-66
2024/03/20 07:34:50;;;;;;;4.70;3.10;;;14.60;59.70;;;;;;5115967;28;20811;-66
2024/03/20 07:37:18;;;;;;;5.43;3.07;;;15.50;58.40;;;;;;5115212;28;20434;-66
2024/03/20 07:43:08;;;;;;;7.20;3.37;;;17.40;53.40;;;;;;5116698;28;20969;-66
2024/03/20 07:45:34;;;;;;;6.97;3.27;;;18.40;48.30;;;;;;5116501;28;20442;-66
2024/03/20 07:48:03;;;;;;;4.77;3.17;;;19.20;46.90;;;;;;5116294;28;20430;-66
2024/03/20 07:50:52;;;;;;;5.33;3.20;;;19.90;44.60;;;;;;5116632;28;20426;-66
2024/03/20 07:54:12;;;;;;;4.60;2.83;;;20.60;43.80;;;;;;5117567;28;20414;-65
2024/03/20 08:00:05;;;;;;;4.50;2.07;;;22.50;40.80;;;;;;5116267;28;20427;-65
2024/03/20 08:02:32;;;;;;;4.83;2.50;;;23.30;37.70;;;;;;5115603;28;20521;-65
2024/03/20 08:05:25;;;;;;;4.00;1.83;;;23.90;36.40;;;;;;5116796;28;20830;-65
2024/03/20 08:07:52;;;;;;;2.60;1.43;;;24.30;33.10;;;;;;5116424;28;20795;-65
2024/03/20 08:10:19;;;;;;;4.20;2.47;;;24.80;34.10;;;;;;5115554;28;20460;-67
2024/03/20 08:12:45;;;;;;;3.33;2.20;;;25.20;31.00;;;;;;5113274;28;20466;-66
2024/03/20 08:15:12;;;;;;;2.90;1.40;;;25.50;30.90;;;;;;5116044;28;20445;-66
2024/03/20 08:17:39;;;;;;;3.40;1.60;;;25.80;29.30;;;;;;5115847;28;20505;-66
2024/03/20 08:20:12;;;;;;;3.73;2.13;;;26.00;29.20;;;;;;5115921;28;20434;-66
2024/03/20 08:22:39;;;;;;;5.00;2.37;;;26.40;28.60;;;;;;5115512;28;20434;-66
2024/03/20 08:25:07;;;;;;;4.63;1.83;;;26.40;26.70;;;;;;5115735;28;20465;-66
2024/03/20 08:27:33;;;;;;;3.53;1.17;;;26.50;27.60;;;;;;5115943;28;20442;-66
2024/03/20 08:30:02;;;;;;;2.50;1.10;;;26.70;26.90;;;;;;5115967;28;20483;-66
2024/03/20 08:32:30;;;;;;;2.83;1.50;;;26.80;25.60;;;;;;5115608;28;20810;-66
2024/03/20 08:34:58;;;;;;;2.87;1.40;;;26.90;25.40;;;;;;5114289;28;20438;-66
2024/03/20 08:37:24;;;;;;;2.67;1.20;;;27.30;26.10;;;;;;5115283;28;20520;-67
2024/03/20 08:39:52;;;;;;;5.60;1.37;;;27.80;26.00;;;;;;5115112;28;20431;-66
2024/03/20 08:42:18;;;;;;;4.00;1.60;;;28.20;25.70;;;;;;5115102;28;20462;-66
2024/03/20 08:44:45;;;;;;;3.10;1.27;;;28.70;25.30;;;;;;5115158;28;20472;-67
2024/03/20 08:47:12;;;;;;;2.30;1.30;;;29.00;24.80;;;;;;5115035;28;20462;-66
2024/03/20 08:49:39;;;;;;;2.57;1.17;;;29.40;24.20;;;;;;5115406;28;20434;-67
2024/03/20 08:52:07;;;;;;;3.60;1.60;;;29.70;22.90;;;;;;5115442;28;20438;-67
2024/03/20 08:54:34;;;;;;;5.50;1.43;;;29.80;23.10;;;;;;5114793;28;20453;-67
2024/03/20 08:57:03;;;;;;;2.93;1.30;;;30.10;22.90;;;;;;5114831;28;20549;-67
2024/03/20 08:59:31;;;;;;;3.90;1.17;;;30.40;22.60;;;;;;5115124;28;20997;-67
2024/03/20 09:01:57;;;;;;;2.93;1.50;;;30.60;21.70;;;;;;5115021;28;20432;-68
2024/03/20 09:04:24;;;;;;;4.67;1.60;;;30.60;21.90;;;;;;5115061;28;20439;-68
2024/03/20 09:06:53;;;;;;;3.20;1.50;;;30.80;22.10;;;;;;5115189;28;20772;-67
2024/03/20 09:09:19;;;;;;;3.47;1.30;;;31.00;22.00;;;;;;5114851;28;20935;-68
2024/03/20 09:11:46;;;;;;;14.77;2.13;;;31.30;22.80;;;;;;5114632;28;20490;-68
2024/03/20 09:14:14;;;;;;;3.03;1.20;;;31.70;22.20;;;;;;5114802;28;20462;-66
2024/03/20 09:16:41;;;;;;;2.77;1.53;;;32.00;22.00;;;;;;5114626;28;20426;-66
2024/03/20 09:19:08;;;;;;;3.00;1.40;;;32.10;21.30;;;;;;5115003;28;20487;-66
2024/03/20 09:21:38;;;;;;;5.23;1.43;;;32.30;21.60;;;;;;5114304;28;20434;-66
2024/03/20 09:24:06;;;;;;;4.03;1.40;;;32.70;21.80;;;;;;5114813;28;20803;-66
2024/03/20 09:26:33;;;;;;;2.23;1.13;;;33.00;20.10;;;;;;5114929;28;20452;-66
2024/03/20 09:29:00;;;;;;;3.03;1.40;;;33.10;19.80;;;;;;5114232;28;20881;-66
2024/03/20 09:31:28;;;;;;;3.47;1.00;;;33.30;19.20;;;;;;5114198;28;20430;-66
2024/03/20 09:33:59;;;;;;;3.63;1.20;;;33.40;19.40;;;;;;5114550;28;20507;-66
2024/03/20 09:36:25;;;;;;;3.03;1.23;;;33.50;19.50;;;;;;5114109;28;20509;-66
2024/03/20 09:38:52;;;;;;;3.40;1.23;;;33.60;18.90;;;;;;5114311;28;20439;-66
2024/03/20 09:41:21;;;;;;;2.10;1.00;;;33.80;18.60;;;;;;5113856;28;20916;-66
2024/03/20 09:43:52;;;;;;;2.87;1.27;;;33.80;18.10;;;;;;5114228;28;20468;-67
2024/03/20 09:46:19;;;;;;;2.43;1.03;;;33.70;18.10;;;;;;5114130;28;20509;-67
2024/03/20 09:48:48;;;;;;;3.10;1.33;;;33.70;19.30;;;;;;5113942;28;20445;-67
2024/03/20 09:51:14;;;;;;;2.90;1.37;;;33.80;19.20;;;;;;5113758;28;20430;-67
2024/03/20 09:53:43;;;;;;;2.97;1.10;;;33.70;18.80;;;;;;5114048;28;20519;-68
2024/03/20 09:56:10;;;;;;;2.10;1.00;;;33.90;19.40;;;;;;5113965;28;20501;-67
2024/03/20 09:58:38;;;;;;;2.80;1.47;;;34.00;19.40;;;;;;5113911;28;20836;-67
2024/03/20 10:01:09;;;;;;;4.20;1.57;;;34.20;18.20;;;;;;5113854;28;20437;-67
2024/03/20 10:03:38;;;;;;;2.77;1.20;;;34.10;18.00;;;;;;5113857;28;20483;-66
2024/03/20 10:06:05;;;;;;;3.60;1.13;;;34.00;18.00;;;;;;5113620;28;20445;-66
2024/03/20 10:08:34;;;;;;;2.50;1.20;;;34.00;18.40;;;;;;5113524;28;20433;-66
2024/03/20 10:11:02;;;;;;;2.83;1.23;;;34.10;19.00;;;;;;5113643;28;20505;-67
2024/03/20 10:13:29;;;;;;;2.80;1.13;;;34.20;18.30;;;;;;5113245;28;20433;-66
2024/03/20 10:16:07;;;;;;;3.50;1.13;;;34.10;18.60;;;;;;5113738;28;20802;-66
2024/03/20 10:18:35;;;;;;;3.33;1.10;;;34.00;18.90;;;;;;5113409;28;20525;-66
2024/03/20 10:21:01;;;;;;;3.47;1.20;;;34.20;17.90;;;;;;5113535;28;20434;-67
2024/03/20 10:23:29;;;;;;;2.60;1.20;;;34.20;18.30;;;;;;5112995;28;20430;-66
2024/03/20 10:25:57;;;;;;;2.80;1.27;;;34.40;18.70;;;;;;5113360;28;20877;-67
2024/03/20 10:28:30;;;;;;;8.23;1.57;;;34.70;18.70;;;;;;5113631;28;20454;-66
2024/03/20 10:31:02;;;;;;;2.47;1.30;;;34.90;17.90;;;;;;5113251;28;20434;-66
2024/03/20 10:33:30;;;;;;;4.10;1.10;;;34.90;17.80;;;;;;5113620;28;20419;-66
2024/03/20 10:35:57;;;;;;;2.83;1.60;;;34.80;17.20;;;;;;5113574;28;20466;-66
2024/03/20 10:38:24;;;;;;;2.73;1.00;;;34.90;18.10;;;;;;5113658;28;20744;-66
2024/03/20 10:40:52;;;;;;;5.63;1.50;;;34.90;18.20;;;;;;5113148;28;20457;-66
2024/03/20 10:43:20;;;;;;;2.77;1.13;;;34.90;17.60;;;;;;5112680;28;20429;-68
2024/03/20 10:45:47;;;;;;;2.57;1.00;;;34.80;17.90;;;;;;5113062;28;20490;-67
2024/03/20 10:48:17;;;;;;;2.77;1.10;;;34.80;17.10;;;;;;5112993;28;20854;-67
2024/03/20 10:50:46;;;;;;;3.70;1.10;;;34.90;16.50;;;;;;5113243;28;20473;-66
2024/03/20 10:53:13;;;;;;;2.83;1.20;;;34.90;15.30;;;;;;5112898;28;20513;-66
2024/03/20 10:55:40;;;;;;;2.10;0.70;;;34.90;15.50;;;;;;5113034;28;20793;-66
2024/03/20 10:58:11;;;;;;;4.13;1.03;;;34.90;15.50;;;;;;5114439;28;20880;-66
2024/03/20 11:00:40;;;;;;;2.27;0.70;;;35.00;15.50;;;;;;5117210;28;20427;-66
2024/03/20 11:03:39;;;;;;;2.70;1.00;;;35.00;14.90;;;;;;5116933;28;20433;-66
2024/03/20 11:06:41;;;;;;;2.00;0.60;;;35.10;15.20;;;;;;5116957;28;20932;-66
2024/03/20 11:09:23;;;;;;;2.13;0.70;;;35.10;14.30;;;;;;5116969;28;20432;-66
2024/03/20 11:11:52;;;;;;;2.17;0.93;;;35.00;14.60;;;;;;5116820;28;20501;-66
2024/03/20 11:14:31;;;;;;;2.20;0.83;;;35.00;15.40;;;;;;5116753;28;20548;-66
2024/03/20 11:17:02;;;;;;;2.13;0.80;;;35.10;15.10;;;;;;5116827;28;20514;-66
2024/03/20 11:19:29;;;;;;;2.80;1.00;;;35.30;16.30;;;;;;5117371;28;20461;-66
2024/03/20 11:21:58;;;;;;;2.43;0.93;;;35.40;15.80;;;;;;5116903;28;20521;-66
2024/03/20 11:24:27;;;;;;;2.17;0.80;;;35.40;15.30;;;;;;5117034;28;20466;-66
2024/03/20 11:26:55;;;;;;;2.50;0.83;;;35.30;14.80;;;;;;5116601;28;20521;-66
2024/03/20 11:29:22;;;;;;;2.30;0.90;;;35.30;14.60;;;;;;5116941;28;20836;-66
2024/03/20 11:31:49;;;;;;;2.23;0.83;;;35.20;15.10;;;;;;5116946;28;20513;-66
2024/03/20 11:34:16;;;;;;;2.20;0.90;;;35.10;16.20;;;;;;5116762;28;20604;-66
2024/03/20 11:36:42;;;;;;;2.00;0.73;;;35.00;16.40;;;;;;5116800;28;20465;-66
2024/03/20 11:39:10;;;;;;;2.23;0.90;;;34.90;15.40;;;;;;5116669;28;20465;-66
2024/03/20 11:41:36;;;;;;;2.33;0.83;;;34.70;14.40;;;;;;5116691;28;20778;-66
2024/03/20 11:44:04;;;;;;;1.93;0.67;;;34.40;14.70;;;;;;5116664;28;20438;-66
2024/03/20 11:46:30;;;;;;;4.30;1.07;;;34.10;13.90;;;;;;5115501;28;20503;-66
2024/03/20 11:48:59;;;;;;;2.20;0.87;;;33.90;14.20;;;;;;5116397;28;20442;-66
2024/03/20 11:51:27;;;;;;;2.47;0.90;;;33.60;14.30;;;;;;5116019;28;20976;-66
2024/03/20 11:53:54;;;;;;;2.20;0.73;;;33.40;14.80;;;;;;5115987;28;20445;-66
2024/03/20 11:56:22;;;;;;;2.00;0.80;;;33.20;14.90;;;;;;5116154;28;20468;-66
2024/03/20 11:58:50;;;;;;;3.37;0.70;;;33.20;15.90;;;;;;5116295;28;20422;-67
2024/03/20 12:01:18;;;;;;;2.00;0.80;;;33.10;15.90;;;;;;5115883;28;20980;-66
2024/03/20 12:03:47;;;;;;;2.10;0.70;;;33.10;15.70;;;;;;5114832;28;20458;-66
2024/03/20 12:06:17;;;;;;;3.17;1.00;;;33.10;15.90;;;;;;5116040;28;20473;-66
2024/03/20 12:08:44;;;;;;;2.23;1.13;;;33.00;15.80;;;;;;5115327;28;20539;-66
2024/03/20 12:11:23;;;;;;;4.40;0.90;;;32.80;14.70;;;;;;5075529;28;20467;-66
2024/03/20 12:13:52;;;;;;;2.47;0.97;;;32.50;15.30;;;;;;5084176;28;20426;-66
2024/03/20 12:16:19;;;;;;;3.23;1.07;;;32.40;16.60;;;;;;5115182;28;20422;-66
2024/03/20 12:18:47;;;;;;;3.03;0.80;;;32.20;16.20;;;;;;5077758;28;20486;-66
2024/03/20 12:21:17;;;;;;;2.10;0.80;;;31.90;15.60;;;;;;5075298;28;20439;-66
2024/03/20 12:23:45;;;;;;;2.00;0.60;;;31.70;16.50;;;;;;5075102;28;20487;-66
2024/03/20 12:26:12;;;;;;;3.63;1.20;;;31.70;17.30;;;;;;5075118;28;20494;-66
2024/03/20 12:28:39;;;;;;;5.07;1.50;;;31.70;16.90;;;;;;5074992;28;20454;-66
2024/03/20 12:31:09;;;;;;;2.50;0.93;;;31.70;16.70;;;;;;5096737;28;20581;-66
2024/03/20 12:33:36;;;;;;;2.40;1.00;;;31.60;16.50;;;;;;5115835;28;20738;-66
2024/03/20 12:36:04;;;;;;;2.30;0.77;;;31.60;17.60;;;;;;5115202;28;20466;-66
2024/03/20 12:38:32;;;;;;;3.07;1.00;;;31.60;17.60;;;;;;5113890;28;20513;-66
2024/03/20 12:40:58;;;;;;;2.47;0.87;;;31.40;16.60;;;;;;5114652;28;20426;-66
2024/03/20 12:43:25;;;;;;;3.77;1.20;;;31.30;16.80;;;;;;5115348;28;20437;-66
2024/03/20 12:45:51;;;;;;;2.10;0.80;;;31.10;17.10;;;;;;5114797;28;20957;-66
2024/03/20 12:48:18;;;;;;;2.00;0.70;;;30.90;16.40;;;;;;5114862;28;20414;-66
2024/03/20 12:50:47;;;;;;;2.30;0.90;;;30.70;17.90;;;;;;5115367;28;20775;-66
2024/03/20 12:53:16;;;;;;;2.73;0.90;;;30.40;17.40;;;;;;5115542;28;20434;-66
2024/03/20 12:55:44;;;;;;;1.97;0.70;;;30.20;17.50;;;;;;5098440;28;20477;-66
2024/03/20 12:58:14;;;;;;;2.20;0.87;;;29.90;16.80;;;;;;5090186;28;20419;-65
2024/03/20 13:00:41;;;;;;;2.00;0.67;;;29.60;16.90;;;;;;5095687;28;20530;-66
2024/03/20 13:03:08;;;;;;;2.10;0.70;;;29.30;17.10;;;;;;5094089;28;20782;-65
2024/03/20 13:05:36;;;;;;;2.97;0.90;;;29.00;16.20;;;;;;5094854;28;20435;-66
2024/03/20 13:08:03;;;;;;;2.10;0.70;;;28.80;17.30;;;;;;5096119;28;20750;-65
2024/03/20 13:10:30;;;;;;;1.90;0.63;;;28.70;16.80;;;;;;5094594;28;20894;-65
2024/03/20 13:13:04;;;;;;;2.20;0.67;;;28.60;17.20;;;;;;5094476;28;20435;-65
2024/03/20 13:15:31;;;;;;;1.80;0.60;;;28.50;17.20;;;;;;5094548;28;20875;-66
2024/03/20 13:17:58;;;;;;;2.00;0.70;;;28.40;17.60;;;;;;5094564;28;20475;-66
2024/03/20 13:20:27;;;;;;;3.13;1.37;;;28.20;17.50;;;;;;5094078;28;20813;-66
2024/03/20 13:22:54;;;;;;;2.60;0.90;;;28.10;17.80;;;;;;5094465;28;20435;-66
2024/03/20 13:25:22;;;;;;;2.17;0.70;;;28.00;17.80;;;;;;5094320;28;20459;-66
2024/03/20 13:27:49;;;;;;;2.90;0.80;;;27.90;18.10;;;;;;5093913;28;20517;-67
2024/03/20 13:30:17;;;;;;;2.20;0.80;;;27.80;17.80;;;;;;5093906;28;20810;-66
2024/03/20 13:32:45;;;;;;;1.80;0.53;;;27.70;17.20;;;;;;5095952;28;20427;-66
2024/03/20 13:35:11;;;;;;;2.20;0.80;;;27.50;17.10;;;;;;5094640;28;20549;-65
2024/03/20 13:37:44;;;;;;;2.00;0.60;;;27.30;17.30;;;;;;5093747;28;20514;-65
2024/03/20 13:40:16;;;;;;;1.90;0.60;;;27.10;16.80;;;;;;5093994;28;20464;-66
2024/03/20 13:42:59;;;;;;;2.97;0.87;;;26.90;17.80;;;;;;5094212;28;20415;-66
2024/03/20 13:45:29;;;;;;;2.00;0.60;;;26.70;17.80;;;;;;5093810;28;20506;-65
2024/03/20 13:47:56;;;;;;;3.87;0.80;;;26.50;17.20;;;;;;5097545;28;20427;-65
2024/03/20 13:50:22;;;;;;;2.17;0.87;;;26.30;17.50;;;;;;5094137;28;20845;-66
2024/03/20 13:52:49;;;;;;;2.10;0.70;;;26.10;17.80;;;;;;5093718;28;20901;-66
2024/03/20 13:55:16;;;;;;;2.33;0.60;;;26.00;19.00;;;;;;5094123;28;20506;-64
2024/03/20 13:57:43;;;;;;;2.10;0.70;;;25.90;19.00;;;;;;5094222;28;20459;-65
2024/03/20 14:00:12;;;;;;;1.93;0.67;;;25.60;18.10;;;;;;5093741;28;20603;-65
2024/03/20 14:02:41;;;;;;;4.73;0.90;;;25.40;18.90;;;;;;5093308;28;20446;-65
2024/03/20 14:05:16;;;;;;;3.50;0.77;;;25.30;19.10;;;;;;5093796;28;20437;-66
2024/03/20 14:07:44;;;;;;;2.50;0.73;;;25.30;20.00;;;;;;5093284;28;20434;-66
2024/03/20 14:10:14;;;;;;;2.93;1.10;;;25.20;19.00;;;;;;5093588;28;20459;-65
2024/03/20 14:12:41;;;;;;;2.07;0.67;;;25.00;17.90;;;;;;5093594;28;20828;-65
2024/03/20 14:15:13;;;;;;;5.83;0.67;;;24.90;18.30;;;;;;5093571;28;20513;-66
2024/03/20 14:17:41;;;;;;;1.97;0.70;;;24.80;18.30;;;;;;5093504;28;20415;-65
2024/03/20 14:20:11;;;;;;;3.40;0.83;;;24.60;18.40;;;;;;5093135;28;20937;-65
2024/03/20 14:22:38;;;;;;;1.80;0.50;;;24.50;18.70;;;;;;5093427;28;20427;-65
2024/03/20 14:25:10;;;;;;;2.00;0.80;;;24.40;19.20;;;;;;5093350;28;20466;-65
2024/03/20 14:27:37;;;;;;;2.70;0.80;;;24.20;18.90;;;;;;5093262;28;20431;-66
2024/03/20 14:30:04;;;;;;;2.13;0.63;;;24.10;19.10;;;;;;5093276;28;20500;-65
2024/03/20 14:32:31;;;;;;;2.93;1.27;;;24.00;19.50;;;;;;5092208;28;20518;-65
2024/03/20 14:34:58;;;;;;;2.53;1.13;;;23.90;20.00;;;;;;5093047;28;20479;-66
2024/03/20 14:37:25;;;;;;;1.87;0.67;;;23.80;19.90;;;;;;5092836;28;20439;-65
2024/03/20 14:39:51;;;;;;;2.40;0.80;;;23.70;20.00;;;;;;5092853;28;20478;-65
2024/03/20 14:42:18;;;;;;;2.40;0.83;;;23.60;19.50;;;;;;5093188;28;20458;-65
2024/03/20 14:44:44;;;;;;;2.13;0.60;;;23.50;19.70;;;;;;5093202;28;20795;-65
2024/03/20 14:47:14;;;;;;;3.57;0.87;;;23.40;20.20;;;;;;5092706;28;20519;-65
2024/03/20 14:49:41;;;;;;;2.10;0.80;;;23.30;20.50;;;;;;5093292;28;20471;-65
2024/03/20 14:52:15;;;;;;;2.10;0.80;;;23.10;20.10;;;;;;5092755;28;20463;-66
2024/03/20 14:54:41;;;;;;;2.30;0.63;;;23.00;20.70;;;;;;5090077;28;20454;-66
2024/03/20 14:57:09;;;;;;;2.90;0.87;;;23.00;22.00;;;;;;5078347;28;20498;-65
2024/03/20 14:59:36;;;;;;;2.67;0.83;;;22.90;21.50;;;;;;5072506;28;20474;-66
2024/03/20 15:02:04;;;;;;;2.10;0.80;;;22.90;21.80;;;;;;5072560;28;20423;-66
2024/03/20 15:04:30;;;;;;;1.90;0.70;;;22.80;21.80;;;;;;5072912;28;20779;-66
2024/03/20 15:06:57;;;;;;;3.30;0.70;;;22.70;21.50;;;;;;5072738;28;20432;-66
2024/03/20 15:09:25;;;;;;;2.73;0.70;;;22.60;21.70;;;;;;5072454;28;20931;-66
2024/03/20 15:11:53;;;;;;;2.00;0.70;;;22.60;21.90;;;;;;5072377;28;20930;-66
2024/03/20 15:14:19;;;;;;;3.27;0.70;;;22.60;21.90;;;;;;5072533;28;20542;-66
2024/03/20 15:16:46;;;;;;;3.07;1.03;;;22.40;21.80;;;;;;5072092;28;20913;-66
2024/03/20 15:19:12;;;;;;;2.20;0.93;;;22.40;21.80;;;;;;5072264;28;20432;-66
2024/03/20 15:21:39;;;;;;;2.20;0.70;;;22.30;22.20;;;;;;5072132;28;20545;-66
2024/03/20 15:24:07;;;;;;;1.90;0.60;;;22.30;21.90;;;;;;5072688;28;20510;-66
2024/03/20 15:26:35;;;;;;;2.60;0.83;;;22.20;21.30;;;;;;5072162;28;20440;-66
2024/03/20 15:29:01;;;;;;;2.70;0.90;;;22.10;21.30;;;;;;5072505;28;20436;-66
2024/03/20 15:31:29;;;;;;;2.20;0.80;;;22.10;21.00;;;;;;5072463;28;20490;-66
2024/03/20 15:33:55;;;;;;;2.00;0.67;;;22.00;21.30;;;;;;5071853;28;20527;-66
2024/03/20 15:36:26;;;;;;;3.13;1.00;;;21.90;22.60;;;;;;5072247;28;20551;-66
2024/03/20 15:38:58;;;;;;;3.53;0.83;;;21.80;23.40;;;;;;5072114;28;20774;-66
2024/03/20 15:41:26;;;;;;;2.50;0.83;;;21.80;23.80;;;;;;5072171;28;21029;-66
2024/03/20 15:43:53;;;;;;;2.47;0.70;;;21.80;23.00;;;;;;5072748;28;20460;-66
2024/03/20 15:46:24;;;;;;;2.93;1.30;;;21.70;23.20;;;;;;5075837;28;20440;-66